Columbia, MO (65205)

12:22 PM CST on December 27, 2014 (GMT -0600)
Rolling Hills | Change Station
CLOSE
Current Station
Personal Weather Station
Location: Centralia, MO
Elevation: 863 ft
Nearby Weather Stations

Elev 863 ft 39.16 °N, 92.19 °W | Updated 7 seconds ago

Snow
Snow
36.3 °F
Feels Like 33 °F
N
4.0
Wind Variable Wind from WNW
Gusts 4.0 mph

Today
High -- | Low -- °F
--% Chance of Precip.
Yesterday
High -- | Low -- °F
Precip. -- in
7:26 AM 4:53 PM
Waxing Crescent, 39% visible
Pressure 30.20 in
Visibility 1.8 miles
Clouds Mostly Cloudy 1100 ft
Overcast 1700 ft
Windchill 33 °F
Dew Point 32 °F
Humidity 85%
Rainfall 0.00 in
Snow Depth Not available.
UV 1 out of 12
Pollen .90 out of 12
Air Quality Not available.
Flu Activity Not available.
SPECI KCOU 271801Z 28008KT 1 3/4SM -SN BR BKN011 OVC017 01/M01 A3020 RMK AO2 PRESFR P0001 T00111006

More Conditions Fewer Conditions

Pressure 30.20 in
Visibility 1.8 miles
Clouds Mostly Cloudy 1100 ft
Overcast 1700 ft
Windchill 33 °F
Dew Point 32 °F
Humidity 85%
Rainfall 0.00 in
Snow Depth Not available.
UV 1 out of 12
Pollen .90 out of 12
Air Quality Not available.
Flu Activity Not available.
SPECI KCOU 271801Z 28008KT 1 3/4SM -SN BR BKN011 OVC017 01/M01 A3020 RMK AO2 PRESFR P0001 T00111006

More Conditions Fewer Conditions

10-Day Weather Forecast

Almanac

Astronomy

Dec. 27, 2014 Rise Set
Actual Time
Civil Twilight
Nautical Twilight
Astronomical Twilight
Moon
Length of Visible Light
Length of Day
Tomorrow will be .
, % of the Moon is Illuminated

Today's Extremes

State Highs State Lows

Community

WunderPhotos

Upload Photos

1,780,982 photos uploaded!

WunderBlogs® & News

Nearby

Air Quality

  Air Quality AQ Index Pollutant
Not available.

Snow Depth

Station Depth Elevation

Earthquake Activity

City Distance Mag. Time & Date
Minimum magnitude displayed is 2.5.

Coastal Water Temperatures

Place Temperature

Nearby Weather Stations